Flight Track Log - Related Links

Times and Time Zones

All times are in EDT time to prevent confusion due to time zone crossing. See the WJA179 flight status page for this flight to view local times or setup timezone preferences in your user account.

Time Position Orientation Groundspeed Altitude Reporting Facility
EDT Latitude Longitude Course Direction KTS MPH feet Rate Location/Type
Sun 04:18:15 PM 62.3279 -114.4070 343° North  Level FlightAware Approximate
Sun 04:18:28 PM 62.4167 -114.4667 174° South 160 184 2,400  Level Edmonton Center
Sun 04:20:28 PM 62.2667 -114.4333 180° South 280 322 7,300 2,733 Climbing Edmonton Center
Sun 04:21:28 PM 62.2000 -114.4333 176° South 290 334 10,600 3,000 Climbing Edmonton Center
Sun 04:22:28 PM 62.1000 -114.4167 169° South 310 357 13,300 3,000 Climbing Edmonton Center
Sun 04:23:28 PM 62.0167 -114.3833 171° South 330 380 16,600 3,300 Climbing Edmonton Center
Sun 04:24:28 PM 61.9167 -114.3500 180° South 350 403 19,900 3,000 Climbing Edmonton Center
Sun 04:25:28 PM 61.8167 -114.3500 172° South 370 426 22,600 2,550 Climbing Edmonton Center
Sun 04:26:28 PM 61.7000 -114.3167 175° South 390 449 25,000 2,400 Climbing Edmonton Center
Sun 04:27:28 PM 61.6000 -114.3000 180° South 410 472 27,400 2,250 Climbing Edmonton Center
Sun 04:28:28 PM 61.4833 -114.3000 168° South 420 483 29,500 1,950 Climbing Edmonton Center
Sun 04:29:28 PM 61.3667 -114.2500 174° South 430 495 31,300 1,950 Climbing Edmonton Center
Sun 04:30:28 PM 61.2167 -114.2167 180° South 440 506 33,400 2,050 Climbing Edmonton Center
Sun 04:31:28 PM 61.1000 -114.2167 172° South 430 495 35,400 1,700 Climbing Edmonton Center
Sun 04:32:28 PM 60.9833 -114.1833 173° South 430 495 36,800 1,200 Climbing Edmonton Center
Sun 04:33:28 PM 60.8500 -114.1500 180° South 430 495 37,800 1,100 Climbing Edmonton Center
Sun 04:34:28 PM 60.7333 -114.1500 172° South 440 506 39,000 1,100 Climbing Edmonton Center
Sun 04:35:28 PM 60.6167 -114.1167 172° South 440 506 40,000 950 Climbing Edmonton Center
Sun 04:36:28 PM 60.5000 -114.0833 180° South 440 506 40,900 500 Climbing Edmonton Center
Sun 04:37:28 PM 60.3667 -114.0833 172° South 440 506 41,000 50 Climbing Edmonton Center
Sun 04:38:28 PM 60.2500 -114.0500 172° South 440 506 41,000  Level Edmonton Center
Sun 04:39:28 PM 60.1333 -114.0167 169° South 440 506 41,000  Level Edmonton Center
Sun 04:40:28 PM 60.0000 -113.9667 180° South 450 518 41,000  Level Edmonton Center
Sun 04:41:28 PM 59.8667 -113.9667 176° South 440 506 41,000  Level Edmonton Center
Sun 04:42:28 PM 59.7500 -113.9500 176° South 440 506 41,000  Level Edmonton Center
Sun 04:43:28 PM 59.6167 -113.9333 176° South 440 506 41,000  Level Edmonton Center
Sun 04:44:28 PM 59.5000 -113.9167 169° South 440 506 41,000  Level Edmonton Center
Sun 04:45:28 PM 59.3667 -113.8667 180° South 440 506 41,000  Level Edmonton Center
Sun 04:46:28 PM 59.2500 -113.8667 176° South 450 518 41,000  Level Edmonton Center
Sun 04:47:28 PM 59.1333 -113.8500 173° South 440 506 41,000  Level Edmonton Center
Sun 04:48:28 PM 59.0000 -113.8167 180° South 440 506 41,000  Level Edmonton Center
Sun 04:49:28 PM 58.8833 -113.8167 173° South 440 506 41,000  Level Edmonton Center
Sun 04:50:28 PM 58.7333 -113.7833 172° South 440 506 41,000  Level Edmonton Center
Sun 04:51:28 PM 58.6167 -113.7500 180° South 430 495 41,000  Level Edmonton Center
Sun 04:52:28 PM 58.5000 -113.7500 171° South 430 495 41,000  Level Edmonton Center
Sun 04:53:28 PM 58.3833 -113.7167 171° South 430 495 41,000  Level Edmonton Center
Sun 04:54:28 PM 58.2667 -113.6833 180° South 430 495 41,000  Level Edmonton Center
Sun 04:55:28 PM 58.1333 -113.6833 175° South 430 495 41,000  Level Edmonton Center
Sun 04:56:28 PM 58.0333 -113.6667 172° South 430 495 41,000  Level Edmonton Center
Sun 04:57:28 PM 57.9000 -113.6333 180° South 430 495 41,000  Level Edmonton Center
Sun 04:58:28 PM 57.7833 -113.6333 171° South 430 495 41,000  Level Edmonton Center
Sun 04:59:28 PM 57.6667 -113.6000 176° South 430 495 41,000  Level Edmonton Center
Sun 05:00:28 PM 57.5500 -113.5833 180° South 430 495 41,000  Level Edmonton Center
Sun 05:01:28 PM 57.4000 -113.5833 171° South 430 495 41,000  Level Edmonton Center
Sun 05:02:28 PM 57.2833 -113.5500 172° South 440 506 41,000  Level Edmonton Center
Sun 05:03:28 PM 57.1500 -113.5167 171° South 440 506 41,000  Level Edmonton Center
Sun 05:04:28 PM 57.0333 -113.4833 180° South 440 506 41,000  Level Edmonton Center
Sun 05:05:28 PM 56.9167 -113.4833 176° South 440 506 41,000  Level Edmonton Center
Sun 05:06:28 PM 56.8000 -113.4667 171° South 440 506 41,000  Level Edmonton Center
Sun 05:07:28 PM 56.6833 -113.4333 180° South 440 506 41,000  Level Edmonton Center
Sun 05:08:28 PM 56.5500 -113.4333 175° South 440 506 41,000  Level Edmonton Center
Sun 05:09:28 PM 56.4333 -113.4167 171° South 440 506 41,000  Level Edmonton Center
Sun 05:10:28 PM 56.3167 -113.3833 180° South 440 506 41,000  Level Edmonton Center
Sun 05:11:28 PM 56.1833 -113.3833 172° South 440 506 41,000  Level Edmonton Center
Sun 05:12:28 PM 56.0500 -113.3500 175° South 440 506 41,000  Level Edmonton Center
Sun 05:13:28 PM 55.9333 -113.3333 180° South 440 506 41,000  Level Edmonton Center
Sun 05:14:28 PM 55.8000 -113.3333 171° South 440 506 41,000  Level Edmonton Center
Sun 05:15:28 PM 55.6833 -113.3000 174° South 440 506 41,000  Level Edmonton Center
Sun 05:17:28 PM 55.4333 -113.2500 180° South 440 506 41,000  Level Edmonton Center
Sun 05:18:28 PM 55.3167 -113.2500 175° South 440 506 41,000  Level Edmonton Center
Sun 05:19:28 PM 55.2000 -113.2333 171° South 440 506 41,000 -600 Level Edmonton Center
Sun 05:20:28 PM 55.0833 -113.2000 180° South 440 506 39,800 -2,000 Descending Edmonton Center
Sun 05:21:28 PM 54.9333 -113.2000 175° South 440 506 37,000 -2,450 Descending Edmonton Center
Sun 05:22:28 PM 54.8167 -113.1833 171° South 440 506 34,900 -2,300 Descending Edmonton Center
Sun 05:23:28 PM 54.7000 -113.1500 185° South 420 483 32,400 -2,300 Descending Edmonton Center
Sun 05:24:28 PM 54.5833 -113.1667 171° South 420 483 30,300 -2,050 Descending Edmonton Center
Sun 05:25:28 PM 54.4667 -113.1333 174° South 400 460 28,300 -2,050 Descending Edmonton Center
Sun 05:26:28 PM 54.3667 -113.1167 180° South 380 437 26,200 -2,050 Descending Edmonton Center
Sun 05:27:28 PM 54.2667 -113.1167 186° South 370 426 24,200 -2,200 Descending Edmonton Center
Sun 05:28:28 PM 54.1667 -113.1333 193° South 350 403 21,800 -2,200 Descending Edmonton Center
Sun 05:29:28 PM 54.0833 -113.1667 196° South 340 391 19,800 -1,850 Descending Edmonton Center
Sun 05:30:28 PM 53.9833 -113.2167 180° South 330 380 18,100 -1,850 Descending Edmonton Center
Sun 05:31:28 PM 53.8833 -113.2167 193° South 330 380 16,100 -1,850 Descending Edmonton Center
Sun 05:32:28 PM 53.8000 -113.2500 187° South 320 368 14,400 -1,750 Descending Edmonton Center
Sun 05:33:28 PM 53.7167 -113.2667 200° South 310 357 12,600 -1,700 Descending Edmonton Center
Sun 05:34:28 PM 53.6333 -113.3167 180° South 310 357 11,000 -1,400 Descending Edmonton Center
Sun 05:35:28 PM 53.5500 -113.3167 187° South 300 345 9,800 -1,300 Descending Edmonton Center
Sun 05:36:28 PM 53.4667 -113.3333 204° Southwest 280 322 8,400 -1,350 Descending Edmonton Center
Sun 05:37:28 PM 53.4000 -113.3833 180° South 280 322 7,100 -1,000 Descending Edmonton Center
Sun 05:38:28 PM 53.3333 -113.3833 189° South 260 299 6,400 -750 Descending Edmonton Center
Sun 05:39:28 PM 53.2667 -113.4000 202° Southwest 220 253 5,600 -850 Descending Edmonton Center
Sun 05:40:28 PM 53.2167 -113.4333 247° West 190 219 4,700 -850 Descending Edmonton Center
Sun 05:41:28 PM 53.2000 -113.5000 329° Northwest 150 173 3,900 -750 Descending Edmonton Center
Sun 05:42:28 PM 53.2333 -113.5333 310° West 130 150 3,200 -650 Descending Edmonton Center
Sun 05:43:28 PM 53.2500 -113.5667 329° Northwest 120 138 2,600 -450 Descending Edmonton Center
Sun 05:44:28 PM 53.2833 -113.6000 329° Northwest 120 138 2,300 -300 Descending Edmonton Center

Login

Don't have an account? Register now (free) for customized features, flight alerts, and more!